Time;durP1;ratioP1;P1;durP2;ratioP2;P2;SDS_P1;SDS_P2;PMS_P1;PMS_P2;Temp;Humidity;BMP_temperature;BMP_pressure;BME280_temperature;BME280_humidity;BME280_pressure;Samples;Min_cycle;Max_cycle;Signal;HPM_P1;HPM_P2
2022/10/04 00:01:23;;;;;;;1999.90;999.90;;;;;;;6.74;100.00;95680.25;6261436;22;20170;-68
2022/10/04 00:04:12;;;;;;;1999.90;999.90;;;;;;;6.76;100.00;95677.94;6261495;22;20215;-68
2022/10/04 00:06:47;;;;;;;1999.90;999.90;;;;;;;6.79;100.00;95674.50;6261462;22;20199;-66
2022/10/04 00:09:22;;;;;;;1999.90;999.90;;;;;;;6.85;100.00;95675.72;6261149;22;20165;-67
2022/10/04 00:11:49;;;;;;;1999.90;999.90;;;;;;;6.88;100.00;95675.75;6260820;22;20231;-67
2022/10/04 00:14:36;;;;;;;1999.90;999.90;;;;;;;6.97;100.00;95694.47;6261117;22;20192;-66
2022/10/04 00:17:10;;;;;;;1999.90;999.90;;;;;;;7.03;100.00;95698.38;6261238;22;20172;-67
2022/10/04 00:19:47;;;;;;;1999.90;999.90;;;;;;;7.06;100.00;95697.63;6260681;22;20176;-68
2022/10/04 00:22:18;;;;;;;1999.90;999.90;;;;;;;7.12;100.00;95695.38;6260946;22;20164;-67
2022/10/04 00:25:06;;;;;;;1999.90;999.90;;;;;;;7.15;100.00;95684.56;6260838;22;20178;-66
2022/10/04 00:27:33;;;;;;;1999.90;999.90;;;;;;;7.15;100.00;95689.19;6260917;22;20168;-65
2022/10/04 00:30:01;;;;;;;1999.90;999.90;;;;;;;7.14;100.00;95688.41;6261077;22;20175;-68
2022/10/04 00:32:45;;;;;;;1999.90;999.90;;;;;;;7.11;100.00;95683.75;6286828;22;20191;-68
2022/10/04 00:35:26;;;;;;;1999.90;999.90;;;;;;;7.04;100.00;95691.81;6261250;22;20276;-67
2022/10/04 00:37:57;;;;;;;1999.90;999.90;;;;;;;7.02;100.00;95685.19;6286195;22;20223;-67
2022/10/04 00:40:27;;;;;;;1999.90;999.90;;;;;;;7.02;100.00;95694.09;6286151;22;20202;-69
2022/10/04 00:43:03;;;;;;;1999.90;999.90;;;;;;;7.00;100.00;95696.44;6260722;22;20459;-68
2022/10/04 00:45:35;;;;;;;1999.90;999.90;;;;;;;6.98;100.00;95696.00;6260780;22;20164;-67
2022/10/04 00:48:18;;;;;;;1999.90;999.90;;;;;;;6.97;100.00;95682.81;6261341;22;20161;-68
2022/10/04 00:51:08;;;;;;;1999.90;999.90;;;;;;;6.93;100.00;95688.22;6261230;22;20170;-68
2022/10/04 00:53:56;;;;;;;1999.90;999.90;;;;;;;6.89;100.00;95681.97;6260795;22;20177;-67
2022/10/04 00:56:55;;;;;;;1999.90;999.90;;;;;;;6.87;100.00;95684.25;6260468;22;20190;-69
2022/10/04 00:59:20;;;;;;;1999.90;999.90;;;;;;;6.80;100.00;95687.69;6243531;22;20221;-68
2022/10/04 01:01:51;;;;;;;1999.90;999.90;;;;;;;6.80;100.00;95689.63;6286189;22;20145;-68
2022/10/04 01:04:32;;;;;;;1999.90;999.90;;;;;;;6.75;100.00;95692.66;6261379;22;20217;-68
2022/10/04 01:07:01;;;;;;;1999.90;999.90;;;;;;;6.68;100.00;95693.38;6260460;22;20161;-67
2022/10/04 01:09:30;;;;;;;1999.90;999.90;;;;;;;6.61;100.00;95696.00;6260874;22;20236;-67
2022/10/04 01:12:02;;;;;;;1999.90;999.90;;;;;;;6.57;100.00;95702.53;6260721;22;20169;-68
2022/10/04 01:14:51;;;;;;;1999.90;999.90;;;;;;;6.54;100.00;95693.22;6260857;22;20168;-66
2022/10/04 01:17:16;;;;;;;1999.90;999.90;;;;;;;6.54;100.00;95681.56;6286377;22;20168;-67
2022/10/04 01:19:51;;;;;;;1999.90;999.90;;;;;;;6.47;100.00;95692.34;6260889;22;20496;-67
2022/10/04 01:22:34;;;;;;;1999.90;999.90;;;;;;;6.43;100.00;95686.09;6261155;22;20167;-68
2022/10/04 01:25:00;;;;;;;1999.90;999.90;;;;;;;6.39;100.00;95690.69;6286363;22;20173;-67
2022/10/04 01:27:43;;;;;;;1999.90;999.90;;;;;;;6.37;100.00;95684.84;6260407;22;20233;-68
2022/10/04 01:30:13;;;;;;;1999.90;999.90;;;;;;;6.36;100.00;95681.38;6261206;22;20361;-67
2022/10/04 01:32:39;;;;;;;1999.90;999.90;;;;;;;6.32;100.00;95679.75;6260735;22;20166;-66
2022/10/04 01:35:07;;;;;;;1999.90;999.90;;;;;;;6.31;100.00;95678.19;6260867;22;20436;-67
2022/10/04 01:37:32;;;;;;;1999.90;999.90;;;;;;;6.28;100.00;95685.16;6260553;22;20170;-67
2022/10/04 01:39:58;;;;;;;1999.90;999.90;;;;;;;6.28;100.00;95684.34;6260424;22;20188;-67
2022/10/04 01:42:48;;;;;;;1999.90;999.90;;;;;;;6.24;100.00;95678.09;6261147;22;20239;-67
2022/10/04 01:45:28;;;;;;;1999.90;999.90;;;;;;;6.23;100.00;95677.31;6261147;22;20393;-67
2022/10/04 01:48:07;;;;;;;1999.90;999.90;;;;;;;6.20;100.00;95666.44;6260861;22;20168;-67
2022/10/04 01:50:44;;;;;;;1999.90;999.90;;;;;;;6.00;100.00;95673.13;6260435;22;20171;-67
2022/10/04 01:53:22;;;;;;;1999.90;999.90;;;;;;;6.01;100.00;95674.72;6260549;22;20168;-69
2022/10/04 01:55:55;;;;;;;1999.90;999.90;;;;;;;6.01;100.00;95669.28;6260600;22;20167;-68
2022/10/04 01:58:34;;;;;;;1999.90;999.90;;;;;;;5.97;100.00;95665.72;6260964;22;20164;-67
2022/10/04 02:01:15;;;;;;;1999.90;999.90;;;;;;;5.97;100.00;95663.81;6260948;22;20180;-66
2022/10/04 02:04:01;;;;;;;1999.90;999.90;;;;;;;5.93;100.00;95656.75;6261255;22;20235;-66
2022/10/04 02:06:29;;;;;;;1999.90;999.90;;;;;;;5.89;100.00;95656.72;6260779;22;20160;-67
2022/10/04 02:08:56;;;;;;;1999.90;999.90;;;;;;;5.85;100.00;95649.69;6261037;22;20176;-66
2022/10/04 02:11:23;;;;;;;1999.90;999.90;;;;;;;5.83;100.00;95649.28;6259843;22;20156;-70
2022/10/04 02:13:52;;;;;;;1999.90;999.90;;;;;;;5.85;100.00;95649.69;6260862;22;20148;-68
2022/10/04 02:16:20;;;;;;;1999.90;999.90;;;;;;;5.82;100.00;95650.41;6260789;22;20168;-68
2022/10/04 02:18:45;;;;;;;1999.90;999.90;;;;;;;5.81;100.00;95643.44;6260439;22;20241;-68
2022/10/04 02:21:14;;;;;;;1999.90;999.90;;;;;;;5.77;100.00;95648.00;6260352;22;20176;-68
2022/10/04 02:23:40;;;;;;;1999.90;999.90;;;;;;;5.70;100.00;95651.41;6260338;22;20367;-68
2022/10/04 02:26:08;;;;;;;1999.90;999.90;;;;;;;5.67;100.00;95646.72;6260180;22;20210;-69
2022/10/04 02:28:34;;;;;;;1999.90;999.90;;;;;;;5.66;100.00;95641.66;6260090;22;20183;-68
2022/10/04 02:33:49;;;;;;;1999.90;999.90;;;;;;;5.63;100.00;95626.13;6287659;22;20167;-67
2022/10/04 02:36:16;;;;;;;1999.90;999.90;;;;;;;5.61;100.00;95623.03;6260206;22;20153;-69
2022/10/04 02:38:44;;;;;;;1999.90;999.90;;;;;;;5.59;100.00;95626.09;6260894;22;20188;-69
2022/10/04 02:41:45;;;;;;;1999.90;999.90;;;;;;;5.60;100.00;95632.28;6260373;22;20176;-68
2022/10/04 02:44:47;;;;;;;1999.90;999.90;;;;;;;5.53;100.00;95632.16;6226825;22;20167;-66
2022/10/04 02:47:18;;;;;;;1999.90;999.90;;;;;;;5.53;100.00;95643.00;6231624;22;20179;-66
2022/10/04 02:50:04;;;;;;;1999.90;999.90;;;;;;;5.53;100.00;95634.88;6260421;22;20339;-67
2022/10/04 02:52:32;;;;;;;1999.90;999.90;;;;;;;5.49;100.00;95625.91;6260377;22;20186;-66
2022/10/04 02:55:05;;;;;;;1999.90;999.90;;;;;;;5.46;100.00;95632.84;6285719;22;20165;-66
2022/10/04 02:57:33;;;;;;;1999.90;999.90;;;;;;;5.48;100.00;95624.38;6260062;22;20219;-66
2022/10/04 03:00:08;;;;;;;1999.90;999.90;;;;;;;5.46;100.00;95632.09;6259787;22;20533;-68
2022/10/04 03:02:33;;;;;;;1999.90;999.90;;;;;;;5.43;100.00;95630.09;6285751;22;20198;-68
2022/10/04 03:05:06;;;;;;;1999.90;999.90;;;;;;;5.41;100.00;95624.25;6260583;22;20168;-69
2022/10/04 03:07:33;;;;;;;1999.90;999.90;;;;;;;5.36;100.00;95621.88;6260273;22;20491;-67
2022/10/04 03:10:00;;;;;;;1999.90;999.90;;;;;;;5.36;100.00;95611.81;6259962;22;20227;-69
2022/10/04 03:12:26;;;;;;;1999.90;999.90;;;;;;;5.35;100.00;95612.19;6259744;22;20462;-70
2022/10/04 03:14:53;;;;;;;1999.90;999.90;;;;;;;5.34;100.00;95616.03;6260132;22;20220;-68
2022/10/04 03:17:19;;;;;;;1999.90;999.90;;;;;;;5.34;100.00;95613.31;6260177;22;20196;-69
2022/10/04 03:19:48;;;;;;;1999.90;999.90;;;;;;;5.30;100.00;95621.41;6259509;22;20185;-69
2022/10/04 03:22:15;;;;;;;1999.90;999.90;;;;;;;5.28;100.00;95614.78;6259716;22;20164;-69
2022/10/04 03:24:52;;;;;;;1999.90;999.90;;;;;;;5.28;100.00;95615.56;6259581;22;20200;-69
2022/10/04 03:27:25;;;;;;;1999.90;999.90;;;;;;;5.26;100.00;95617.06;6259855;22;20164;-67
2022/10/04 03:29:51;;;;;;;1999.90;999.90;;;;;;;5.26;100.00;95617.06;6260187;22;20164;-67
2022/10/04 03:32:18;;;;;;;1999.90;999.90;;;;;;;5.21;100.00;95598.44;6261352;22;20196;-68
2022/10/04 03:34:54;;;;;;;1999.90;999.90;;;;;;;5.16;100.00;95601.44;6261571;22;20346;-68
2022/10/04 03:37:20;;;;;;;1999.90;999.90;;;;;;;5.13;100.00;95596.78;6261802;22;20164;-68
2022/10/04 03:39:48;;;;;;;1999.90;999.90;;;;;;;5.15;100.00;95610.72;6261093;22;20504;-69
2022/10/04 03:42:26;;;;;;;1999.90;999.90;;;;;;;5.13;100.00;95618.44;6261621;22;20238;-67
2022/10/04 03:45:01;;;;;;;1999.90;999.90;;;;;;;5.13;100.00;95623.84;6260662;22;20160;-68
2022/10/04 03:47:31;;;;;;;1999.90;999.90;;;;;;;5.11;100.00;95616.06;6261021;22;20164;-68
2022/10/04 03:50:23;;;;;;;1999.90;999.90;;;;;;;5.13;100.00;95618.44;6260684;22;20164;-69
2022/10/04 03:52:55;;;;;;;1999.90;999.90;;;;;;;5.11;100.00;95618.78;6261728;22;20145;-69
2022/10/04 03:55:25;;;;;;;1999.90;999.90;;;;;;;5.08;100.00;95613.31;6287169;22;20164;-66
2022/10/04 03:57:51;;;;;;;1999.90;999.90;;;;;;;5.06;100.00;95612.91;6260970;22;20170;-65
2022/10/04 04:00:17;;;;;;;1999.90;999.90;;;;;;;5.06;100.00;95610.19;6260865;22;20203;-69
2022/10/04 04:02:57;;;;;;;1999.90;999.90;;;;;;;5.09;100.00;95617.56;6261214;22;20202;-65
2022/10/04 04:05:28;;;;;;;1999.90;999.90;;;;;;;5.11;100.00;95612.59;6261245;22;20176;-66
2022/10/04 04:08:02;;;;;;;1999.90;999.90;;;;;;;5.10;100.00;95605.63;6261884;22;20251;-69
2022/10/04 04:10:32;;;;;;;1999.90;999.90;;;;;;;5.11;100.00;95604.47;6261117;22;20477;-65
2022/10/04 04:13:10;;;;;;;1999.90;999.90;;;;;;;5.12;100.00;95597.91;6286949;22;20187;-67
2022/10/04 04:15:42;;;;;;;1999.90;999.90;;;;;;;5.09;100.00;95606.72;6261326;22;20183;-66
2022/10/04 04:18:17;;;;;;;1999.90;999.90;;;;;;;5.08;100.00;95594.34;6260760;22;20171;-66
2022/10/04 04:20:44;;;;;;;1999.90;999.90;;;;;;;5.09;100.00;95598.63;6260903;22;20199;-65
2022/10/04 04:23:13;;;;;;;1999.90;999.90;;;;;;;5.08;100.00;95594.34;6260815;22;20184;-68
2022/10/04 04:25:41;;;;;;;1999.90;999.90;;;;;;;5.08;100.00;95588.94;6286897;22;20175;-68
2022/10/04 04:28:21;;;;;;;1999.90;999.90;;;;;;;5.05;100.00;95589.66;6260673;22;20499;-67
2022/10/04 04:30:50;;;;;;;1999.90;999.90;;;;;;;5.05;100.00;95587.75;6260672;22;20231;-66
2022/10/04 04:33:25;;;;;;;1999.90;999.90;;;;;;;5.06;100.00;95596.66;6260574;22;20191;-65
2022/10/04 04:35:54;;;;;;;1999.90;999.90;;;;;;;5.06;100.00;95591.25;6286708;22;20469;-66
2022/10/04 04:38:24;;;;;;;1999.90;999.90;;;;;;;5.02;100.00;95601.22;6260654;22;20288;-66
2022/10/04 04:40:54;;;;;;;1999.90;999.90;;;;;;;5.02;100.00;95599.28;6260581;22;20184;-67
2022/10/04 04:43:20;;;;;;;1999.90;999.90;;;;;;;4.99;100.00;95604.66;6260228;22;20160;-66
2022/10/04 04:45:49;;;;;;;1999.90;999.90;;;;;;;4.93;100.00;95608.81;6260983;22;20165;-67
2022/10/04 04:48:17;;;;;;;1999.90;999.90;;;;;;;4.94;100.00;95596.81;6260604;22;20461;-67
2022/10/04 04:50:50;;;;;;;1999.90;999.90;;;;;;;4.94;100.00;95599.53;6261279;22;20172;-68
2022/10/04 04:53:21;;;;;;;1999.90;999.90;;;;;;;4.93;100.00;95598.78;6260983;22;20165;-69
2022/10/04 04:56:05;;;;;;;1999.90;999.90;;;;;;;4.96;100.00;95597.25;6261320;22;20380;-71
2022/10/04 04:58:41;;;;;;;1999.90;999.90;;;;;;;4.97;100.00;95585.28;6261068;22;20218;-69
2022/10/04 05:01:25;;;;;;;1999.90;999.90;;;;;;;4.98;100.00;95576.81;6261177;22;20180;-70
2022/10/04 05:04:11;;;;;;;1999.90;999.90;;;;;;;4.98;100.00;95584.94;6260910;22;20491;-71
2022/10/04 05:06:38;;;;;;;1999.90;999.90;;;;;;;4.95;100.00;95584.88;6286214;22;20202;-69
2022/10/04 05:09:04;;;;;;;1999.90;999.90;;;;;;;4.90;100.00;95587.88;6260736;22;20180;-69
2022/10/04 05:11:33;;;;;;;1999.90;999.90;;;;;;;4.89;100.00;95586.31;6260816;22;20187;-73
2022/10/04 05:14:04;;;;;;;1999.90;999.90;;;;;;;4.91;100.00;95581.31;6261199;22;20169;-69
2022/10/04 05:16:39;;;;;;;1999.90;999.90;;;;;;;4.92;100.00;95597.19;6261306;22;20169;-69
2022/10/04 05:19:30;;;;;;;1999.90;999.90;;;;;;;5.00;100.00;95595.41;6285892;22;20476;-71
2022/10/04 05:21:59;;;;;;;1999.90;999.90;;;;;;;5.03;100.00;95600.09;6260937;22;20160;-67
2022/10/04 05:24:30;;;;;;;1999.90;999.90;;;;;;;5.03;100.00;95581.16;6260625;22;20172;-70
2022/10/04 05:27:00;;;;;;;1999.90;999.90;;;;;;;5.02;100.00;95584.97;6260606;22;20166;-67
2022/10/04 05:29:29;;;;;;;1999.90;999.90;;;;;;;5.03;100.00;95587.31;6260729;22;20167;-68
2022/10/04 05:32:03;;;;;;;1999.90;999.90;;;;;;;5.12;100.00;95595.19;6259758;22;20179;-69
2022/10/04 05:34:36;;;;;;;1999.90;999.90;;;;;;;5.18;100.00;95591.84;6260722;22;20461;-68
2022/10/04 05:37:19;;;;;;;1999.90;999.90;;;;;;;5.28;100.00;95598.56;6260503;22;20161;-67
2022/10/04 05:40:02;;;;;;;1999.90;999.90;;;;;;;5.42;100.00;95582.50;6260055;22;20184;-69
2022/10/04 05:42:43;;;;;;;1999.90;999.90;;;;;;;5.79;100.00;95569.88;6260202;22;20227;-70
2022/10/04 05:45:30;;;;;;;1999.90;999.90;;;;;;;6.80;100.00;95543.06;6260071;22;20487;-70
2022/10/04 05:47:59;;;;;;;1999.90;999.90;;;;;;;7.04;100.00;95537.06;6285952;22;20516;-67
2022/10/04 05:50:41;;;;;;;1999.90;999.90;;;;;;;7.08;100.00;95543.31;6259909;22;20168;-67
2022/10/04 05:53:19;;;;;;;1999.90;999.90;;;;;;;7.64;100.00;95554.53;6260296;22;20193;-67
2022/10/04 05:56:15;;;;;;;1999.90;999.90;;;;;;;7.78;100.00;95560.03;6285871;22;20228;-68
2022/10/04 05:58:49;;;;;;;1999.90;999.90;;;;;;;7.80;100.00;95563.16;6285979;22;20171;-69
2022/10/04 06:01:33;;;;;;;1999.90;999.90;;;;;;;7.63;100.00;95579.34;6285606;22;20244;-68
2022/10/04 06:04:37;;;;;;;1999.90;999.90;;;;;;;7.49;100.00;95590.91;6285911;22;20166;-70
2022/10/04 06:07:10;;;;;;;1999.90;999.90;;;;;;;7.89;100.00;95588.06;6285808;22;20486;-70
2022/10/04 06:09:58;;;;;;;1999.90;999.90;;;;;;;8.30;100.00;95594.09;6260217;22;20185;-69
2022/10/04 06:12:41;;;;;;;1999.90;999.90;;;;;;;9.04;100.00;95593.06;6260499;22;20153;-69
2022/10/04 06:15:26;;;;;;;1999.90;999.90;;;;;;;10.54;100.00;95568.63;6260342;22;20176;-69
2022/10/04 06:18:15;;;;;;;1999.90;999.90;;;;;;;11.41;100.00;95512.56;6285625;22;20168;-67
2022/10/04 06:20:53;;;;;;;1999.90;999.90;;;;;;;12.44;100.00;95415.13;6286227;22;20186;-71
2022/10/04 06:23:20;;;;;;;1999.90;999.90;;;;;;;12.07;100.00;95308.53;6286243;22;20189;-70
2022/10/04 06:25:57;;;;;;;1999.90;999.90;;;;;;;11.37;100.00;95298.56;6259747;22;20202;-71
2022/10/04 06:28:26;;;;;;;1999.90;999.90;;;;;;;10.75;100.00;95311.78;6260329;22;20179;-68
2022/10/04 06:31:10;;;;;;;1999.90;999.90;;;;;;;10.25;100.00;95322.38;6260118;22;20177;-69
2022/10/04 06:33:53;;;;;;;1999.90;999.90;;;;;;;10.06;100.00;95353.69;6285479;22;20237;-69
2022/10/04 06:36:19;;;;;;;1999.90;999.90;;;;;;;9.86;100.00;95385.34;6260165;22;20238;-68
2022/10/04 06:39:03;;;;;;;1999.90;999.90;;;;;;;9.69;100.00;95413.47;6285571;22;20230;-68
2022/10/04 06:41:35;;;;;;;1999.90;999.90;;;;;;;9.66;100.00;95425.19;6286127;22;20248;-72
2022/10/04 06:44:19;;;;;;;1999.90;999.90;;;;;;;9.69;100.00;95448.94;6260563;22;20247;-71
2022/10/04 06:46:59;;;;;;;1999.90;999.90;;;;;;;9.71;100.00;95457.50;6285308;22;20236;-72
2022/10/04 06:49:37;;;;;;;1999.90;999.90;;;;;;;9.79;100.00;95464.47;6285877;22;20377;-72
2022/10/04 06:52:06;;;;;;;1999.90;999.90;;;;;;;9.87;100.00;95466.00;6259801;22;20171;-70
2022/10/04 06:54:59;;;;;;;1999.90;999.90;;;;;;;9.92;100.00;95468.31;6285155;22;20228;-70
2022/10/04 06:57:58;;;;;;;1999.90;999.90;;;;;;;9.95;100.00;95467.50;6285317;22;20176;-68
2022/10/04 07:00:26;;;;;;;1999.90;999.90;;;;;;;9.95;100.00;95488.56;6285207;22;20180;-68
2022/10/04 07:03:03;;;;;;;1999.90;999.90;;;;;;;10.12;100.00;95487.72;6259851;22;20168;-69
2022/10/04 07:05:44;;;;;;;1999.90;999.90;;;;;;;10.12;100.00;95481.50;6260328;22;20176;-70
2022/10/04 07:08:30;;;;;;;1999.90;999.90;;;;;;;10.34;100.00;95478.25;6261232;22;20203;-69
2022/10/04 07:11:12;;;;;;;1999.90;999.90;;;;;;;10.29;100.00;95473.22;6261700;22;20169;-69
2022/10/04 07:13:55;;;;;;;1999.90;999.90;;;;;;;10.63;100.00;95474.16;6261016;22;20173;-70
2022/10/04 07:16:36;;;;;;;1999.90;999.90;;;;;;;11.03;100.00;95472.69;6261233;22;20471;-69
2022/10/04 07:19:29;;;;;;;1999.90;999.90;;;;;;;11.39;100.00;95449.28;6287099;22;20190;-69
2022/10/04 07:22:02;;;;;;;1999.90;999.90;;;;;;;11.59;100.00;95439.31;6287056;22;20239;-72
2022/10/04 07:24:55;;;;;;;1999.90;999.90;;;;;;;11.95;100.00;95415.84;6261889;22;20182;-71
2022/10/04 07:27:29;;;;;;;1999.90;999.90;;;;;;;12.32;100.00;95394.56;6286535;22;20204;-71
2022/10/04 07:29:58;;;;;;;1999.90;999.90;;;;;;;12.47;100.00;95371.25;6261103;22;20178;-69
2022/10/04 07:32:28;;;;;;;1999.90;999.90;;;;;;;12.55;100.00;95363.69;6260908;22;20177;-70
2022/10/04 07:35:34;;;;;;;1999.90;999.90;;;;;;;12.79;100.00;95343.34;6261661;22;20275;-72
2022/10/04 07:38:17;;;;;;;1999.90;999.90;;;;;;;13.24;100.00;95325.28;6248581;22;20149;-72
2022/10/04 07:41:09;;;;;;;1999.90;999.90;;;;;;;13.69;100.00;95306.34;6261090;22;20184;-73
2022/10/04 07:43:49;;;;;;;1999.90;999.90;;;;;;;14.30;100.00;95299.84;6260929;22;20231;-72
2022/10/04 07:46:36;;;;;;;1999.90;999.90;;;;;;;15.44;100.00;95235.94;6260941;22;20191;-70
2022/10/04 07:49:02;;;;;;;1999.90;999.90;;;;;;;15.67;100.00;95189.56;6286572;22;20227;-71
2022/10/04 07:52:02;;;;;;;1999.90;999.90;;;;;;;15.53;100.00;95179.00;6261088;22;20140;-71
2022/10/04 07:54:53;;;;;;;1999.90;999.90;;;;;;;15.36;100.00;95190.53;6260676;22;20186;-72
2022/10/04 07:57:39;;;;;;;1999.90;999.90;;;;;;;15.03;100.00;95222.91;6218232;22;20184;-70
2022/10/04 08:00:43;;;;;;;1999.90;999.90;;;;;;;14.47;100.00;95251.94;6260601;22;20182;-71
2022/10/04 08:03:43;;;;;;;1999.90;999.90;;;;;;;14.54;100.00;95262.75;6169115;23;20178;-70
2022/10/04 08:06:27;;;;;;;1999.90;999.90;;;;;;;14.99;100.00;95266.25;6260562;22;20209;-70
2022/10/04 08:09:21;;;;;;;1999.90;999.90;;;;;;;15.51;100.00;95247.47;6286167;22;20176;-70
2022/10/04 08:12:12;;;;;;;1999.90;999.90;;;;;;;15.29;100.00;95243.78;6287060;22;20180;-71
2022/10/04 08:15:12;;;;;;;1999.90;999.90;;;;;;;15.53;100.00;95252.56;6225739;22;20172;-70
2022/10/04 08:18:24;;;;;;;1999.90;999.90;;;;;;;16.73;100.00;95213.66;6286072;22;20187;-70
2022/10/04 08:20:57;;;;;;;1999.90;999.90;;;;;;;17.55;100.00;95157.81;6244053;22;20188;-70
2022/10/04 08:23:41;;;;;;;1999.90;999.90;;;;;;;17.72;100.00;95137.00;6260796;22;20169;-72
2022/10/04 08:26:09;;;;;;;1999.90;999.90;;;;;;;18.58;100.00;95106.91;6286108;22;20176;-72
2022/10/04 08:32:18;;;;;;;1999.90;999.90;;;;;;;18.40;100.00;94956.81;6287630;22;20239;-72
2022/10/04 08:34:53;;;;;;;1999.90;999.90;;;;;;;17.63;100.00;95137.72;6229275;22;20176;-72
2022/10/04 08:37:36;;;;;;;1999.90;999.90;;;;;;;17.07;100.00;95329.50;6286692;22;20168;-71
2022/10/04 08:40:42;;;;;;;1999.90;999.90;;;;;;;17.90;100.00;95305.63;6286695;22;20203;-71
2022/10/04 08:43:19;;;;;;;1999.90;999.90;;;;;;;18.27;100.00;95428.97;6286053;22;20215;-70
2022/10/04 08:46:22;;;;;;;1999.90;999.90;;;;;;;17.86;100.00;95398.94;6286428;22;20179;-70
2022/10/04 08:49:06;;;;;;;1999.90;999.90;;;;;;;19.21;100.00;95396.81;6286101;22;20172;-71
2022/10/04 08:51:53;;;;;;;1999.90;999.90;;;;;;;18.72;100.00;95531.66;6286648;22;20184;-71
2022/10/04 08:54:40;;;;;;;1999.90;999.90;;;;;;;17.33;100.00;95543.56;6286552;22;20168;-70
2022/10/04 08:57:33;;;;;;;1999.90;999.90;;;;;;;17.47;100.00;95482.38;6286304;22;20187;-70
2022/10/04 09:00:15;;;;;;;1999.90;999.90;;;;;;;17.24;100.00;95361.25;6286296;22;20192;-69
2022/10/04 09:02:59;;;;;;;1999.90;999.90;;;;;;;18.38;100.00;95451.50;6260726;22;20179;-69
2022/10/04 09:05:40;;;;;;;1999.90;999.90;;;;;;;17.85;100.00;95472.75;6285969;22;20168;-70
2022/10/04 09:08:40;;;;;;;1999.90;999.90;;;;;;;17.28;100.00;95541.34;6261057;22;20232;-71
2022/10/04 09:11:29;;;;;;;1999.90;999.90;;;;;;;17.78;100.00;95552.38;6286115;22;20433;-71
2022/10/04 09:14:17;;;;;;;1999.90;999.90;;;;;;;18.31;100.00;95617.66;6286395;22;20171;-71
2022/10/04 09:17:07;;;;;;;1999.90;999.90;;;;;;;17.64;100.00;95641.22;6285789;22;20175;-71
2022/10/04 09:20:02;;;;;;;1999.90;999.90;;;;;;;17.63;100.00;95639.69;6259851;22;20252;-70
2022/10/04 09:23:02;;;;;;;1999.90;999.90;;;;;;;18.17;100.00;95662.41;6286063;22;20175;-71
2022/10/04 09:25:45;;;;;;;1999.90;999.90;;;;;;;18.23;100.00;95683.50;6223336;22;20191;-70
2022/10/04 09:28:39;;;;;;;1999.90;999.90;;;;;;;17.57;100.00;95718.78;6260423;22;20211;-69
2022/10/04 09:31:36;;;;;;;1999.90;999.90;;;;;;;17.98;100.00;95694.59;6286294;22;20194;-72
2022/10/04 09:34:26;;;;;;;1999.90;999.90;;;;;;;17.15;100.00;95715.25;6204423;22;20176;-69
2022/10/04 09:37:23;;;;;;;1999.90;999.90;;;;;;;17.88;100.00;95706.75;6260227;22;20169;-69
2022/10/04 09:39:52;;;;;;;1999.90;999.90;;;;;;;17.84;100.00;95744.00;6260283;22;20191;-70
2022/10/04 09:42:38;;;;;;;1999.90;999.90;;;;;;;18.41;100.00;95771.44;6286064;22;20172;-70
2022/10/04 09:45:23;;;;;;;1999.90;999.90;;;;;;;18.56;100.00;95780.81;6229933;22;20183;-69
2022/10/04 09:48:07;;;;;;;1999.90;999.90;;;;;;;18.53;100.00;95803.84;6285925;22;20176;-69
2022/10/04 09:51:06;;;;;;;1999.90;999.90;;;;;;;18.09;100.00;95760.59;6285610;22;20184;-70
2022/10/04 09:54:06;;;;;;;1999.90;999.90;;;;;;;18.23;100.00;95776.72;6260078;22;20180;-71
2022/10/04 09:56:47;;;;;;;1999.90;999.90;;;;;;;18.64;100.00;95791.22;6285429;22;20172;-71
2022/10/04 09:59:31;;;;;;;1999.90;999.90;;;;;;;18.74;100.00;95769.94;6285837;22;20172;-70
2022/10/04 10:02:29;;;;;;;1999.90;999.90;;;;;;;18.71;100.00;95792.97;6285604;22;20172;-70
2022/10/04 10:05:27;;;;;;;1999.90;999.90;;;;;;;18.16;100.00;95821.19;6285652;22;20203;-69
2022/10/04 10:08:19;;;;;;;1999.90;999.90;;;;;;;18.11;100.00;95830.03;6259996;22;20168;-69
2022/10/04 10:14:12;;;;;;;1999.90;999.90;;;;;;;18.01;100.00;95831.13;6286868;22;20184;-69
2022/10/04 10:16:59;;;;;;;1999.90;999.90;;;;;;;17.86;100.00;95827.25;6260162;22;20172;-69
2022/10/04 10:19:39;;;;;;;1999.90;999.90;;;;;;;18.30;100.00;95827.06;6259995;22;20214;-69
2022/10/04 10:22:34;;;;;;;1999.90;999.90;;;;;;;17.72;100.00;95827.66;6286169;22;20164;-69
2022/10/04 10:25:30;;;;;;;1999.90;999.90;;;;;;;18.07;100.00;95816.31;6285445;22;20176;-69
2022/10/04 10:28:22;;;;;;;1999.90;999.90;;;;;;;17.82;100.00;95826.56;6285566;22;20179;-69
2022/10/04 10:31:09;;;;;;;1999.90;999.90;;;;;;;17.99;100.00;95817.75;6259749;22;20180;-70
2022/10/04 10:34:08;;;;;;;1999.90;999.90;;;;;;;18.57;100.00;95837.69;6286077;22;20222;-69
2022/10/04 10:36:45;;;;;;;1999.90;999.90;;;;;;;17.37;100.00;95814.81;6259820;22;20169;-68
2022/10/04 10:39:58;;;;;;;1999.90;999.90;;;;;;;17.99;100.00;95811.47;6260298;22;20172;-71
2022/10/04 10:42:53;;;;;;;1999.90;999.90;;;;;;;18.07;100.00;95837.69;6193628;23;20169;-71
2022/10/04 10:45:37;;;;;;;1999.90;999.90;;;;;;;18.16;100.00;95857.91;6284385;22;20204;-70
2022/10/04 10:48:13;;;;;;;1999.90;999.90;;;;;;;17.91;100.00;95862.63;6260168;22;20184;-70
2022/10/04 10:51:21;;;;;;;1999.90;999.90;;;;;;;18.08;100.00;95864.09;6259680;22;20176;-71
2022/10/04 10:54:14;;;;;;;1999.90;999.90;;;;;;;18.42;100.00;95855.97;6260843;22;20148;-72
2022/10/04 10:57:05;;;;;;;1999.90;999.90;;;;;;;18.53;100.00;95873.78;6259643;22;20199;-71
2022/10/04 11:00:04;;;;;;;1999.90;999.90;;;;;;;19.19;100.00;95892.19;6260455;22;20176;-71
2022/10/04 11:02:42;;;;;;;1999.90;999.90;;;;;;;18.98;100.00;95915.81;6230264;22;20222;-74
2022/10/04 11:05:26;;;;;;;1999.90;999.90;;;;;;;19.18;100.00;95926.66;6285874;22;20179;-73
2022/10/04 11:08:08;;;;;;;1999.90;999.90;;;;;;;19.55;100.00;95923.06;6285434;22;20235;-72
2022/10/04 11:10:46;;;;;;;1999.90;999.90;;;;;;;18.76;100.00;95926.03;6285168;22;20172;-71
2022/10/04 11:13:26;;;;;;;1999.90;999.90;;;;;;;18.22;100.00;95910.69;6285616;22;20195;-73
2022/10/04 11:16:18;;;;;;;1999.90;999.90;;;;;;;18.35;100.00;95917.03;6259684;22;20231;-73
2022/10/04 11:18:55;;;;;;;1999.90;999.90;;;;;;;17.86;100.00;95896.31;6260423;22;20173;-72
2022/10/04 11:21:41;;;;;;;1999.90;999.90;;;;;;;17.58;100.00;95869.47;6284929;22;20187;-73
2022/10/04 11:24:28;;;;;;;1999.90;999.90;;;;;;;17.71;100.00;95856.50;6259764;22;20185;-74
2022/10/04 11:27:16;;;;;;;1999.90;999.90;;;;;;;18.35;100.00;95851.44;6285442;22;20164;-73
2022/10/04 11:30:22;;;;;;;1999.90;999.90;;;;;;;18.29;100.00;95863.47;6284641;22;20152;-72
2022/10/04 11:33:25;;;;;;;1999.90;999.90;;;;;;;17.88;100.00;95871.81;6230795;22;20183;-73
2022/10/04 11:36:20;;;;;;;1999.90;999.90;;;;;;;17.28;100.00;95862.38;6285139;22;20168;-73
2022/10/04 11:39:01;;;;;;;1999.90;999.90;;;;;;;17.14;100.00;95857.22;6259415;22;20185;-72
2022/10/04 11:41:47;;;;;;;1999.90;999.90;;;;;;;17.22;100.00;95842.03;6285892;22;20194;-73
2022/10/04 11:44:51;;;;;;;1999.90;999.90;;;;;;;16.83;100.00;95835.97;6259495;22;20169;-72
2022/10/04 11:47:44;;;;;;;1999.90;999.90;;;;;;;17.06;100.00;95838.53;6285243;22;20180;-72
2022/10/04 11:50:39;;;;;;;1999.90;999.90;;;;;;;17.06;100.00;95833.00;6259870;22;20168;-71
2022/10/04 11:53:35;;;;;;;1999.90;999.90;;;;;;;17.18;100.00;95851.59;6231943;22;20191;-71
2022/10/04 11:56:19;;;;;;;1999.90;999.90;;;;;;;16.96;100.00;95848.63;6286796;22;20169;-70
2022/10/04 11:59:17;;;;;;;1999.90;999.90;;;;;;;17.06;100.00;95855.06;6261442;22;20161;-71